Bartlett, Illinois
Current Conditions -  °F | °C
As of 9:12 AM on Saturday 22 Nov 2014 (Local Time) from KDPA Reporting Station
Haze Haze  
Wind Chill: 30°   Ceiling: 500
Heat Index: 38°   Visibility: 1mi
Dew Point: 37°   Wind: 12mph
Humidity: 97%   Direction: 190°S
Pressure: 29.99"   Gusts: NA
Location:  41.99°N, 88.18°W
Report Text: KDPA 221512Z 19010KT 1SM BR OVC005 03/03 A2999 RMK AO2 T00330028 RVRNO
Loading
Personal Weather Stations






























Interactive Weather Map New forecast layout! Learn more

10-Day Weather Forecast

Advertisements
Track Severe Weather on mobile